sensor_id;sensor_type;location;lat;lon;timestamp;temperature;humidity
68556;HTU21D;55544;51.032;5.866;2023-06-01T00:01:45;21.03;55.58
68556;HTU21D;55544;51.032;5.866;2023-06-01T00:04:12;21.04;55.54
68556;HTU21D;55544;51.032;5.866;2023-06-01T00:06:39;21.02;55.54
68556;HTU21D;55544;51.032;5.866;2023-06-01T00:09:05;20.94;55.59
68556;HTU21D;55544;51.032;5.866;2023-06-01T00:11:31;20.88;55.81
68556;HTU21D;55544;51.032;5.866;2023-06-01T00:13:57;20.83;56.03
68556;HTU21D;55544;51.032;5.866;2023-06-01T00:16:23;20.78;56.15
68556;HTU21D;55544;51.032;5.866;2023-06-01T00:18:49;20.75;56.26
68556;HTU21D;55544;51.032;5.866;2023-06-01T00:21:17;20.69;56.32
68556;HTU21D;55544;51.032;5.866;2023-06-01T00:23:42;20.61;56.58
68556;HTU21D;55544;51.032;5.866;2023-06-01T00:26:08;20.55;56.68
68556;HTU21D;55544;51.032;5.866;2023-06-01T00:28:34;20.50;56.71
68556;HTU21D;55544;51.032;5.866;2023-06-01T00:31:00;20.46;56.96
68556;HTU21D;55544;51.032;5.866;2023-06-01T00:33:26;20.43;57.08
68556;HTU21D;55544;51.032;5.866;2023-06-01T00:35:52;20.40;57.26
68556;HTU21D;55544;51.032;5.866;2023-06-01T00:38:18;20.37;57.30
68556;HTU21D;55544;51.032;5.866;2023-06-01T00:40:46;20.31;57.19
68556;HTU21D;55544;51.032;5.866;2023-06-01T00:43:15;20.30;57.35
68556;HTU21D;55544;51.032;5.866;2023-06-01T00:45:42;20.24;57.40
68556;HTU21D;55544;51.032;5.866;2023-06-01T00:48:08;20.19;57.61
68556;HTU21D;55544;51.032;5.866;2023-06-01T00:50:34;20.15;57.87
68556;HTU21D;55544;51.032;5.866;2023-06-01T00:53:03;20.15;57.98
68556;HTU21D;55544;51.032;5.866;2023-06-01T00:55:31;20.12;57.97
68556;HTU21D;55544;51.032;5.866;2023-06-01T00:57:57;20.11;58.04
68556;HTU21D;55544;51.032;5.866;2023-06-01T01:00:26;20.07;58.00
68556;HTU21D;55544;51.032;5.866;2023-06-01T01:02:52;20.03;58.10
68556;HTU21D;55544;51.032;5.866;2023-06-01T01:05:18;19.98;58.01
68556;HTU21D;55544;51.032;5.866;2023-06-01T01:08:00;19.90;58.14
68556;HTU21D;55544;51.032;5.866;2023-06-01T01:10:39;19.84;58.22
68556;HTU21D;55544;51.032;5.866;2023-06-01T01:13:10;19.77;58.25
68556;HTU21D;55544;51.032;5.866;2023-06-01T01:18:43;19.58;58.69
68556;HTU21D;55544;51.032;5.866;2023-06-01T01:21:13;19.53;58.77
68556;HTU21D;55544;51.032;5.866;2023-06-01T01:29:09;19.38;59.02
68556;HTU21D;55544;51.032;5.866;2023-06-01T01:31:38;19.28;59.32
68556;HTU21D;55544;51.032;5.866;2023-06-01T01:34:05;19.24;59.58
68556;HTU21D;55544;51.032;5.866;2023-06-01T01:36:33;19.20;59.64
68556;HTU21D;55544;51.032;5.866;2023-06-01T01:39:01;19.13;59.70
68556;HTU21D;55544;51.032;5.866;2023-06-01T01:41:28;19.13;59.73
68556;HTU21D;55544;51.032;5.866;2023-06-01T01:43:54;19.10;59.73
68556;HTU21D;55544;51.032;5.866;2023-06-01T01:46:28;19.06;59.77
68556;HTU21D;55544;51.032;5.866;2023-06-01T01:49:16;18.98;59.88
68556;HTU21D;55544;51.032;5.866;2023-06-01T01:54:19;18.82;60.51
68556;HTU21D;55544;51.032;5.866;2023-06-01T01:56:46;18.78;60.59
68556;HTU21D;55544;51.032;5.866;2023-06-01T01:59:12;18.77;60.58
68556;HTU21D;55544;51.032;5.866;2023-06-01T02:01:39;18.74;60.73
68556;HTU21D;55544;51.032;5.866;2023-06-01T02:04:10;18.72;60.65
68556;HTU21D;55544;51.032;5.866;2023-06-01T02:06:36;18.68;60.67
68556;HTU21D;55544;51.032;5.866;2023-06-01T02:09:05;18.63;60.76
68556;HTU21D;55544;51.032;5.866;2023-06-01T02:11:36;18.59;60.83
68556;HTU21D;55544;51.032;5.866;2023-06-01T02:14:02;18.55;60.86
68556;HTU21D;55544;51.032;5.866;2023-06-01T02:16:28;18.51;61.00
68556;HTU21D;55544;51.032;5.866;2023-06-01T02:18:55;18.48;61.10
68556;HTU21D;55544;51.032;5.866;2023-06-01T02:21:24;18.44;61.12
68556;HTU21D;55544;51.032;5.866;2023-06-01T02:23:50;18.41;61.12
68556;HTU21D;55544;51.032;5.866;2023-06-01T02:26:16;18.37;61.14
68556;HTU21D;55544;51.032;5.866;2023-06-01T02:28:42;18.32;61.25
68556;HTU21D;55544;51.032;5.866;2023-06-01T02:31:09;18.26;61.25
68556;HTU21D;55544;51.032;5.866;2023-06-01T02:33:36;18.18;61.28
68556;HTU21D;55544;51.032;5.866;2023-06-01T02:36:01;18.11;61.50
68556;HTU21D;55544;51.032;5.866;2023-06-01T02:38:28;18.05;61.70
68556;HTU21D;55544;51.032;5.866;2023-06-01T02:40:53;17.98;61.92
68556;HTU21D;55544;51.032;5.866;2023-06-01T02:43:19;17.94;62.02
68556;HTU21D;55544;51.032;5.866;2023-06-01T02:45:45;17.89;61.92
68556;HTU21D;55544;51.032;5.866;2023-06-01T02:48:11;17.82;62.10
68556;HTU21D;55544;51.032;5.866;2023-06-01T02:50:37;17.74;62.24
68556;HTU21D;55544;51.032;5.866;2023-06-01T02:53:03;17.69;62.33
68556;HTU21D;55544;51.032;5.866;2023-06-01T02:55:30;17.59;62.41
68556;HTU21D;55544;51.032;5.866;2023-06-01T02:58:16;17.46;62.83
68556;HTU21D;55544;51.032;5.866;2023-06-01T03:00:56;17.33;63.12
68556;HTU21D;55544;51.032;5.866;2023-06-01T03:03:24;17.23;63.63
68556;HTU21D;55544;51.032;5.866;2023-06-01T03:05:52;17.18;63.94
68556;HTU21D;55544;51.032;5.866;2023-06-01T03:08:35;17.13;64.11
68556;HTU21D;55544;51.032;5.866;2023-06-01T03:11:03;17.13;64.23
68556;HTU21D;55544;51.032;5.866;2023-06-01T03:13:33;17.08;64.11
68556;HTU21D;55544;51.032;5.866;2023-06-01T03:15:59;17.06;64.05
68556;HTU21D;55544;51.032;5.866;2023-06-01T03:18:24;17.02;64.36
68556;HTU21D;55544;51.032;5.866;2023-06-01T03:20:50;16.94;64.48
68556;HTU21D;55544;51.032;5.866;2023-06-01T03:23:18;16.91;64.64
68556;HTU21D;55544;51.032;5.866;2023-06-01T03:25:44;16.88;64.62
68556;HTU21D;55544;51.032;5.866;2023-06-01T03:28:11;16.87;64.76
68556;HTU21D;55544;51.032;5.866;2023-06-01T03:30:38;16.81;64.77
68556;HTU21D;55544;51.032;5.866;2023-06-01T03:33:03;16.78;64.84
68556;HTU21D;55544;51.032;5.866;2023-06-01T03:35:29;16.78;64.82
68556;HTU21D;55544;51.032;5.866;2023-06-01T03:37:55;16.74;64.99
68556;HTU21D;55544;51.032;5.866;2023-06-01T03:40:21;16.72;64.93
68556;HTU21D;55544;51.032;5.866;2023-06-01T03:42:48;16.70;65.09
68556;HTU21D;55544;51.032;5.866;2023-06-01T03:45:15;16.70;65.08
68556;HTU21D;55544;51.032;5.866;2023-06-01T03:47:42;16.67;64.95
68556;HTU21D;55544;51.032;5.866;2023-06-01T03:50:09;16.66;64.93
68556;HTU21D;55544;51.032;5.866;2023-06-01T03:52:37;16.63;64.97
68556;HTU21D;55544;51.032;5.866;2023-06-01T03:55:05;16.58;64.85
68556;HTU21D;55544;51.032;5.866;2023-06-01T03:57:58;16.55;65.09
68556;HTU21D;55544;51.032;5.866;2023-06-01T04:00:24;16.55;65.35
68556;HTU21D;55544;51.032;5.866;2023-06-01T04:03:00;16.48;65.71
68556;HTU21D;55544;51.032;5.866;2023-06-01T04:05:27;16.48;65.77
68556;HTU21D;55544;51.032;5.866;2023-06-01T04:07:55;16.47;65.85
68556;HTU21D;55544;51.032;5.866;2023-06-01T04:10:22;16.47;65.78
68556;HTU21D;55544;51.032;5.866;2023-06-01T04:12:49;16.43;65.82
68556;HTU21D;55544;51.032;5.866;2023-06-01T04:15:16;16.37;66.14
68556;HTU21D;55544;51.032;5.866;2023-06-01T04:17:43;16.34;66.38
68556;HTU21D;55544;51.032;5.866;2023-06-01T04:20:14;16.34;66.46
68556;HTU21D;55544;51.032;5.866;2023-06-01T04:22:42;16.31;66.55
68556;HTU21D;55544;51.032;5.866;2023-06-01T04:25:12;16.34;66.78
68556;HTU21D;55544;51.032;5.866;2023-06-01T04:27:46;16.36;66.69
68556;HTU21D;55544;51.032;5.866;2023-06-01T04:30:13;16.41;66.57
68556;HTU21D;55544;51.032;5.866;2023-06-01T04:32:40;16.43;66.27
68556;HTU21D;55544;51.032;5.866;2023-06-01T04:35:10;16.40;66.11
68556;HTU21D;55544;51.032;5.866;2023-06-01T04:37:37;16.31;66.00
68556;HTU21D;55544;51.032;5.866;2023-06-01T04:40:07;16.21;66.55
68556;HTU21D;55544;51.032;5.866;2023-06-01T04:42:35;16.15;66.59
68556;HTU21D;55544;51.032;5.866;2023-06-01T04:45:02;16.08;66.88
68556;HTU21D;55544;51.032;5.866;2023-06-01T04:47:32;16.03;67.17
68556;HTU21D;55544;51.032;5.866;2023-06-01T04:49:58;15.98;67.46
68556;HTU21D;55544;51.032;5.866;2023-06-01T04:52:24;15.98;67.59
68556;HTU21D;55544;51.032;5.866;2023-06-01T04:54:51;15.96;67.44
68556;HTU21D;55544;51.032;5.866;2023-06-01T04:57:17;15.93;67.46
68556;HTU21D;55544;51.032;5.866;2023-06-01T04:59:44;15.89;67.40
68556;HTU21D;55544;51.032;5.866;2023-06-01T05:02:10;15.84;67.46
68556;HTU21D;55544;51.032;5.866;2023-06-01T05:04:36;15.78;67.72
68556;HTU21D;55544;51.032;5.866;2023-06-01T05:07:02;15.74;68.01
68556;HTU21D;55544;51.032;5.866;2023-06-01T05:09:27;15.72;68.17
68556;HTU21D;55544;51.032;5.866;2023-06-01T05:11:53;15.68;68.08
68556;HTU21D;55544;51.032;5.866;2023-06-01T05:14:19;15.67;68.13
68556;HTU21D;55544;51.032;5.866;2023-06-01T05:16:45;15.70;68.35
68556;HTU21D;55544;51.032;5.866;2023-06-01T05:19:11;15.78;67.96
68556;HTU21D;55544;51.032;5.866;2023-06-01T05:21:37;15.82;67.80
68556;HTU21D;55544;51.032;5.866;2023-06-01T05:24:04;15.82;67.76
68556;HTU21D;55544;51.032;5.866;2023-06-01T05:26:31;15.80;67.66
68556;HTU21D;55544;51.032;5.866;2023-06-01T05:28:57;15.75;67.52
68556;HTU21D;55544;51.032;5.866;2023-06-01T05:31:23;15.71;67.32
68556;HTU21D;55544;51.032;5.866;2023-06-01T05:33:52;15.67;67.45
68556;HTU21D;55544;51.032;5.866;2023-06-01T05:36:19;15.60;67.52
68556;HTU21D;55544;51.032;5.866;2023-06-01T05:38:45;15.60;67.62
68556;HTU21D;55544;51.032;5.866;2023-06-01T05:41:11;15.63;67.50
68556;HTU21D;55544;51.032;5.866;2023-06-01T05:43:38;15.68;67.25
68556;HTU21D;55544;51.032;5.866;2023-06-01T05:46:05;15.69;66.98
68556;HTU21D;55544;51.032;5.866;2023-06-01T05:48:32;15.72;66.89
68556;HTU21D;55544;51.032;5.866;2023-06-01T05:50:58;15.80;66.85
68556;HTU21D;55544;51.032;5.866;2023-06-01T05:53:24;15.86;66.58
68556;HTU21D;55544;51.032;5.866;2023-06-01T05:55:51;15.96;66.47
68556;HTU21D;55544;51.032;5.866;2023-06-01T05:58:17;16.04;66.33
68556;HTU21D;55544;51.032;5.866;2023-06-01T06:00:43;16.07;66.43
68556;HTU21D;55544;51.032;5.866;2023-06-01T06:03:09;16.16;66.17
68556;HTU21D;55544;51.032;5.866;2023-06-01T06:05:35;16.18;65.78
68556;HTU21D;55544;51.032;5.866;2023-06-01T06:08:00;16.15;65.70
68556;HTU21D;55544;51.032;5.866;2023-06-01T06:10:26;16.16;65.75
68556;HTU21D;55544;51.032;5.866;2023-06-01T06:12:52;16.20;65.48
68556;HTU21D;55544;51.032;5.866;2023-06-01T06:15:18;16.25;65.08
68556;HTU21D;55544;51.032;5.866;2023-06-01T06:17:44;16.27;64.97
68556;HTU21D;55544;51.032;5.866;2023-06-01T06:20:10;16.28;65.05
68556;HTU21D;55544;51.032;5.866;2023-06-01T06:22:36;16.31;64.84
68556;HTU21D;55544;51.032;5.866;2023-06-01T06:25:02;16.34;64.86
68556;HTU21D;55544;51.032;5.866;2023-06-01T06:27:28;16.35;64.79
68556;HTU21D;55544;51.032;5.866;2023-06-01T06:29:54;16.35;65.01
68556;HTU21D;55544;51.032;5.866;2023-06-01T06:32:19;16.43;64.87
68556;HTU21D;55544;51.032;5.866;2023-06-01T06:34:46;16.45;64.68
68556;HTU21D;55544;51.032;5.866;2023-06-01T06:37:12;16.46;64.63
68556;HTU21D;55544;51.032;5.866;2023-06-01T06:39:37;16.50;64.37
68556;HTU21D;55544;51.032;5.866;2023-06-01T06:42:04;16.52;64.17
68556;HTU21D;55544;51.032;5.866;2023-06-01T06:44:31;16.54;64.51
68556;HTU21D;55544;51.032;5.866;2023-06-01T06:47:00;16.61;64.33
68556;HTU21D;55544;51.032;5.866;2023-06-01T06:49:28;16.69;63.97
68556;HTU21D;55544;51.032;5.866;2023-06-01T06:51:54;16.73;64.03
68556;HTU21D;55544;51.032;5.866;2023-06-01T06:54:21;16.79;64.06
68556;HTU21D;55544;51.032;5.866;2023-06-01T06:56:47;16.89;63.71
68556;HTU21D;55544;51.032;5.866;2023-06-01T06:59:13;17.00;63.59
68556;HTU21D;55544;51.032;5.866;2023-06-01T07:01:39;17.11;63.11
68556;HTU21D;55544;51.032;5.866;2023-06-01T07:04:07;17.23;62.60
68556;HTU21D;55544;51.032;5.866;2023-06-01T07:06:33;17.34;62.18
68556;HTU21D;55544;51.032;5.866;2023-06-01T07:09:00;17.47;61.86
68556;HTU21D;55544;51.032;5.866;2023-06-01T07:11:27;17.58;61.79
68556;HTU21D;55544;51.032;5.866;2023-06-01T07:13:53;17.69;61.24
68556;HTU21D;55544;51.032;5.866;2023-06-01T07:16:19;17.77;60.71
68556;HTU21D;55544;51.032;5.866;2023-06-01T07:18:45;17.92;60.22
68556;HTU21D;55544;51.032;5.866;2023-06-01T07:21:10;18.02;59.83
68556;HTU21D;55544;51.032;5.866;2023-06-01T07:23:36;18.18;59.57
68556;HTU21D;55544;51.032;5.866;2023-06-01T07:26:02;18.28;58.83
68556;HTU21D;55544;51.032;5.866;2023-06-01T07:28:27;18.39;58.75
68556;HTU21D;55544;51.032;5.866;2023-06-01T07:30:54;18.59;58.51
68556;HTU21D;55544;51.032;5.866;2023-06-01T07:33:19;18.80;57.60
68556;HTU21D;55544;51.032;5.866;2023-06-01T07:35:46;18.95;57.00
68556;HTU21D;55544;51.032;5.866;2023-06-01T07:38:12;19.10;56.48
68556;HTU21D;55544;51.032;5.866;2023-06-01T07:40:38;19.25;55.88
68556;HTU21D;55544;51.032;5.866;2023-06-01T07:43:03;19.44;55.50
68556;HTU21D;55544;51.032;5.866;2023-06-01T07:45:29;19.57;55.27
68556;HTU21D;55544;51.032;5.866;2023-06-01T07:47:55;19.65;54.73
68556;HTU21D;55544;51.032;5.866;2023-06-01T07:50:21;19.67;54.29
68556;HTU21D;55544;51.032;5.866;2023-06-01T07:52:48;19.72;53.75
68556;HTU21D;55544;51.032;5.866;2023-06-01T07:55:17;19.84;53.21
68556;HTU21D;55544;51.032;5.866;2023-06-01T07:57:43;20.00;52.77
68556;HTU21D;55544;51.032;5.866;2023-06-01T08:00:09;20.13;52.47
68556;HTU21D;55544;51.032;5.866;2023-06-01T08:02:38;20.29;52.08
68556;HTU21D;55544;51.032;5.866;2023-06-01T08:05:04;20.36;51.91
68556;HTU21D;55544;51.032;5.866;2023-06-01T08:07:30;20.45;51.78
68556;HTU21D;55544;51.032;5.866;2023-06-01T08:09:56;20.49;51.59
68556;HTU21D;55544;51.032;5.866;2023-06-01T08:12:23;20.55;51.24
68556;HTU21D;55544;51.032;5.866;2023-06-01T08:14:49;20.63;50.70
68556;HTU21D;55544;51.032;5.866;2023-06-01T08:17:16;20.71;50.70
68556;HTU21D;55544;51.032;5.866;2023-06-01T08:19:44;20.81;50.03
68556;HTU21D;55544;51.032;5.866;2023-06-01T08:22:10;20.92;49.75
68556;HTU21D;55544;51.032;5.866;2023-06-01T08:24:37;21.04;49.29
68556;HTU21D;55544;51.032;5.866;2023-06-01T08:27:16;21.21;48.77
68556;HTU21D;55544;51.032;5.866;2023-06-01T08:29:45;21.34;49.04
68556;HTU21D;55544;51.032;5.866;2023-06-01T08:32:12;21.44;48.62
68556;HTU21D;55544;51.032;5.866;2023-06-01T08:34:38;21.52;47.87
68556;HTU21D;55544;51.032;5.866;2023-06-01T08:37:04;21.46;47.83
68556;HTU21D;55544;51.032;5.866;2023-06-01T08:39:30;21.50;48.18
68556;HTU21D;55544;51.032;5.866;2023-06-01T08:42:15;21.57;48.32
68556;HTU21D;55544;51.032;5.866;2023-06-01T08:44:46;21.73;48.17
68556;HTU21D;55544;51.032;5.866;2023-06-01T08:47:13;21.90;47.54
68556;HTU21D;55544;51.032;5.866;2023-06-01T08:49:41;21.99;47.05
68556;HTU21D;55544;51.032;5.866;2023-06-01T08:52:19;22.10;46.43
68556;HTU21D;55544;51.032;5.866;2023-06-01T08:54:46;22.17;46.31
68556;HTU21D;55544;51.032;5.866;2023-06-01T08:57:13;22.27;46.06
68556;HTU21D;55544;51.032;5.866;2023-06-01T08:59:39;22.37;46.29
68556;HTU21D;55544;51.032;5.866;2023-06-01T09:02:05;22.48;46.25
68556;HTU21D;55544;51.032;5.866;2023-06-01T09:04:32;22.58;46.39
68556;HTU21D;55544;51.032;5.866;2023-06-01T09:07:02;22.67;46.03
68556;HTU21D;55544;51.032;5.866;2023-06-01T09:09:28;22.73;45.65
68556;HTU21D;55544;51.032;5.866;2023-06-01T09:14:41;22.77;44.59
68556;HTU21D;55544;51.032;5.866;2023-06-01T09:17:13;22.82;44.60
68556;HTU21D;55544;51.032;5.866;2023-06-01T09:19:52;22.97;43.96
68556;HTU21D;55544;51.032;5.866;2023-06-01T09:22:18;23.13;43.19
68556;HTU21D;55544;51.032;5.866;2023-06-01T09:24:58;23.32;43.03
68556;HTU21D;55544;51.032;5.866;2023-06-01T09:27:24;23.43;43.13
68556;HTU21D;55544;51.032;5.866;2023-06-01T09:29:58;23.55;42.65
68556;HTU21D;55544;51.032;5.866;2023-06-01T09:32:27;23.59;42.52
68556;HTU21D;55544;51.032;5.866;2023-06-01T09:34:53;23.60;42.26
68556;HTU21D;55544;51.032;5.866;2023-06-01T09:37:20;23.67;42.05
68556;HTU21D;55544;51.032;5.866;2023-06-01T09:39:46;23.77;41.56
68556;HTU21D;55544;51.032;5.866;2023-06-01T09:42:12;23.87;41.69
68556;HTU21D;55544;51.032;5.866;2023-06-01T09:44:41;23.96;41.97
68556;HTU21D;55544;51.032;5.866;2023-06-01T09:47:12;24.10;41.67
68556;HTU21D;55544;51.032;5.866;2023-06-01T09:49:43;24.20;41.35
68556;HTU21D;55544;51.032;5.866;2023-06-01T09:52:14;24.42;40.65
68556;HTU21D;55544;51.032;5.866;2023-06-01T09:54:48;24.64;40.24
68556;HTU21D;55544;51.032;5.866;2023-06-01T09:57:26;24.68;39.69
68556;HTU21D;55544;51.032;5.866;2023-06-01T09:59:54;24.80;39.56
68556;HTU21D;55544;51.032;5.866;2023-06-01T10:02:22;24.97;38.24
68556;HTU21D;55544;51.032;5.866;2023-06-01T10:04:51;25.00;38.67
68556;HTU21D;55544;51.032;5.866;2023-06-01T10:07:19;24.98;38.91
68556;HTU21D;55544;51.032;5.866;2023-06-01T10:09:54;25.06;39.05
68556;HTU21D;55544;51.032;5.866;2023-06-01T10:12:21;25.19;39.37
68556;HTU21D;55544;51.032;5.866;2023-06-01T10:14:50;25.31;38.65
68556;HTU21D;55544;51.032;5.866;2023-06-01T10:17:18;25.47;38.33
68556;HTU21D;55544;51.032;5.866;2023-06-01T10:19:45;25.62;37.91
68556;HTU21D;55544;51.032;5.866;2023-06-01T10:22:11;25.79;38.09
68556;HTU21D;55544;51.032;5.866;2023-06-01T10:24:39;25.95;37.99
68556;HTU21D;55544;51.032;5.866;2023-06-01T10:27:26;26.11;37.27
68556;HTU21D;55544;51.032;5.866;2023-06-01T10:29:54;26.22;36.18
68556;HTU21D;55544;51.032;5.866;2023-06-01T10:32:48;26.37;35.73
68556;HTU21D;55544;51.032;5.866;2023-06-01T10:40:43;26.18;38.13
68556;HTU21D;55544;51.032;5.866;2023-06-01T10:48:57;26.72;35.87
68556;HTU21D;55544;51.032;5.866;2023-06-01T10:51:24;26.79;36.52
68556;HTU21D;55544;51.032;5.866;2023-06-01T10:53:51;26.94;36.02
68556;HTU21D;55544;51.032;5.866;2023-06-01T10:56:24;27.04;34.89
68556;HTU21D;55544;51.032;5.866;2023-06-01T11:01:44;27.16;35.18
68556;HTU21D;55544;51.032;5.866;2023-06-01T11:04:10;27.26;34.56
68556;HTU21D;55544;51.032;5.866;2023-06-01T11:06:39;27.34;34.04
68556;HTU21D;55544;51.032;5.866;2023-06-01T11:09:07;27.42;33.65
68556;HTU21D;55544;51.032;5.866;2023-06-01T11:14:20;27.49;33.46
68556;HTU21D;55544;51.032;5.866;2023-06-01T11:16:49;27.73;33.60
68556;HTU21D;55544;51.032;5.866;2023-06-01T11:19:24;27.94;33.14
68556;HTU21D;55544;51.032;5.866;2023-06-01T11:22:00;28.00;32.76
68556;HTU21D;55544;51.032;5.866;2023-06-01T11:24:33;28.06;32.67
68556;HTU21D;55544;51.032;5.866;2023-06-01T11:26:59;28.06;32.38
68556;HTU21D;55544;51.032;5.866;2023-06-01T11:29:30;27.95;32.44
68556;HTU21D;55544;51.032;5.866;2023-06-01T11:32:02;27.94;32.80
68556;HTU21D;55544;51.032;5.866;2023-06-01T11:34:41;28.18;32.61
68556;HTU21D;55544;51.032;5.866;2023-06-01T11:37:17;28.39;31.99
68556;HTU21D;55544;51.032;5.866;2023-06-01T11:39:44;28.39;31.60
68556;HTU21D;55544;51.032;5.866;2023-06-01T11:42:18;28.30;31.72
68556;HTU21D;55544;51.032;5.866;2023-06-01T11:44:55;28.37;32.24
68556;HTU21D;55544;51.032;5.866;2023-06-01T11:47:21;28.60;31.51
68556;HTU21D;55544;51.032;5.866;2023-06-01T11:49:48;28.71;31.85
68556;HTU21D;55544;51.032;5.866;2023-06-01T11:52:16;28.97;31.77
68556;HTU21D;55544;51.032;5.866;2023-06-01T11:54:42;29.19;31.12
68556;HTU21D;55544;51.032;5.866;2023-06-01T11:57:09;29.36;30.31
68556;HTU21D;55544;51.032;5.866;2023-06-01T11:59:49;29.27;30.35
68556;HTU21D;55544;51.032;5.866;2023-06-01T12:02:20;29.32;30.56
68556;HTU21D;55544;51.032;5.866;2023-06-01T12:05:01;29.63;30.13
68556;HTU21D;55544;51.032;5.866;2023-06-01T12:07:31;29.91;29.58
68556;HTU21D;55544;51.032;5.866;2023-06-01T12:09:58;30.04;28.61
68556;HTU21D;55544;51.032;5.866;2023-06-01T12:12:27;30.10;27.87
68556;HTU21D;55544;51.032;5.866;2023-06-01T12:14:54;30.17;27.24
68556;HTU21D;55544;51.032;5.866;2023-06-01T12:17:20;30.02;27.09
68556;HTU21D;55544;51.032;5.866;2023-06-01T12:19:47;29.88;27.45
68556;HTU21D;55544;51.032;5.866;2023-06-01T12:22:14;29.85;28.17
68556;HTU21D;55544;51.032;5.866;2023-06-01T12:24:41;29.96;28.30
68556;HTU21D;55544;51.032;5.866;2023-06-01T12:27:17;30.20;27.87
68556;HTU21D;55544;51.032;5.866;2023-06-01T12:29:47;30.45;28.11
68556;HTU21D;55544;51.032;5.866;2023-06-01T12:32:15;30.62;27.37
68556;HTU21D;55544;51.032;5.866;2023-06-01T12:34:43;30.65;27.08
68556;HTU21D;55544;51.032;5.866;2023-06-01T12:37:18;30.68;27.06
68556;HTU21D;55544;51.032;5.866;2023-06-01T12:39:54;30.76;27.12
68556;HTU21D;55544;51.032;5.866;2023-06-01T12:45:04;30.80;27.41
68556;HTU21D;55544;51.032;5.866;2023-06-01T12:47:41;31.04;27.25
68556;HTU21D;55544;51.032;5.866;2023-06-01T12:50:10;31.15;26.46
68556;HTU21D;55544;51.032;5.866;2023-06-01T12:52:36;31.30;26.80
68556;HTU21D;55544;51.032;5.866;2023-06-01T12:55:03;31.46;26.07
68556;HTU21D;55544;51.032;5.866;2023-06-01T12:57:31;31.51;25.62
68556;HTU21D;55544;51.032;5.866;2023-06-01T12:59:57;31.38;25.31
68556;HTU21D;55544;51.032;5.866;2023-06-01T13:02:23;31.35;25.23
68556;HTU21D;55544;51.032;5.866;2023-06-01T13:04:50;31.46;25.37
68556;HTU21D;55544;51.032;5.866;2023-06-01T13:07:16;31.54;24.92
68556;HTU21D;55544;51.032;5.866;2023-06-01T13:09:42;31.46;25.23
68556;HTU21D;55544;51.032;5.866;2023-06-01T13:12:08;31.58;25.37
68556;HTU21D;55544;51.032;5.866;2023-06-01T13:14:35;31.55;25.17
68556;HTU21D;55544;51.032;5.866;2023-06-01T13:17:00;31.49;25.44
68556;HTU21D;55544;51.032;5.866;2023-06-01T13:19:29;31.63;24.96
68556;HTU21D;55544;51.032;5.866;2023-06-01T13:21:54;31.75;24.41
68556;HTU21D;55544;51.032;5.866;2023-06-01T13:24:20;31.76;24.47
68556;HTU21D;55544;51.032;5.866;2023-06-01T13:26:46;31.79;24.56
68556;HTU21D;55544;51.032;5.866;2023-06-01T13:29:12;31.94;24.04
68556;HTU21D;55544;51.032;5.866;2023-06-01T13:31:38;32.03;23.59
68556;HTU21D;55544;51.032;5.866;2023-06-01T13:34:04;32.04;23.79
68556;HTU21D;55544;51.032;5.866;2023-06-01T13:36:30;32.14;23.14
68556;HTU21D;55544;51.032;5.866;2023-06-01T13:38:56;32.24;22.87
68556;HTU21D;55544;51.032;5.866;2023-06-01T13:41:23;32.31;21.57
68556;HTU21D;55544;51.032;5.866;2023-06-01T13:43:49;32.32;21.88
68556;HTU21D;55544;51.032;5.866;2023-06-01T13:46:14;32.47;21.73
68556;HTU21D;55544;51.032;5.866;2023-06-01T13:48:40;32.55;21.79
68556;HTU21D;55544;51.032;5.866;2023-06-01T13:51:06;32.62;21.52
68556;HTU21D;55544;51.032;5.866;2023-06-01T13:53:32;32.71;22.02
68556;HTU21D;55544;51.032;5.866;2023-06-01T13:55:59;32.71;21.72
68556;HTU21D;55544;51.032;5.866;2023-06-01T13:58:25;32.70;21.92
68556;HTU21D;55544;51.032;5.866;2023-06-01T14:00:51;32.75;21.85
68556;HTU21D;55544;51.032;5.866;2023-06-01T14:03:17;32.72;22.23
68556;HTU21D;55544;51.032;5.866;2023-06-01T14:05:42;32.72;22.53
68556;HTU21D;55544;51.032;5.866;2023-06-01T14:08:08;32.81;22.34
68556;HTU21D;55544;51.032;5.866;2023-06-01T14:10:34;32.88;22.34
68556;HTU21D;55544;51.032;5.866;2023-06-01T14:13:01;33.00;22.32
68556;HTU21D;55544;51.032;5.866;2023-06-01T14:15:27;33.00;22.69
68556;HTU21D;55544;51.032;5.866;2023-06-01T14:17:53;32.97;22.66
68556;HTU21D;55544;51.032;5.866;2023-06-01T14:20:19;32.99;22.81
68556;HTU21D;55544;51.032;5.866;2023-06-01T14:22:45;33.14;22.76
68556;HTU21D;55544;51.032;5.866;2023-06-01T14:25:11;33.22;22.16
68556;HTU21D;55544;51.032;5.866;2023-06-01T14:27:39;33.18;22.47
68556;HTU21D;55544;51.032;5.866;2023-06-01T14:30:06;33.23;22.38
68556;HTU21D;55544;51.032;5.866;2023-06-01T14:32:32;33.27;22.62
68556;HTU21D;55544;51.032;5.866;2023-06-01T14:34:58;33.38;22.40
68556;HTU21D;55544;51.032;5.866;2023-06-01T14:37:23;33.51;22.32
68556;HTU21D;55544;51.032;5.866;2023-06-01T14:39:49;33.51;21.98
68556;HTU21D;55544;51.032;5.866;2023-06-01T14:42:16;33.34;22.06
68556;HTU21D;55544;51.032;5.866;2023-06-01T14:44:43;33.31;22.69
68556;HTU21D;55544;51.032;5.866;2023-06-01T14:47:09;33.26;22.50
68556;HTU21D;55544;51.032;5.866;2023-06-01T14:49:37;33.13;22.31
68556;HTU21D;55544;51.032;5.866;2023-06-01T14:52:03;33.06;22.95
68556;HTU21D;55544;51.032;5.866;2023-06-01T14:54:29;32.96;22.86
68556;HTU21D;55544;51.032;5.866;2023-06-01T14:56:55;32.84;22.72
68556;HTU21D;55544;51.032;5.866;2023-06-01T14:59:21;32.77;22.68
68556;HTU21D;55544;51.032;5.866;2023-06-01T15:01:46;32.70;22.46
68556;HTU21D;55544;51.032;5.866;2023-06-01T15:04:12;32.61;22.51
68556;HTU21D;55544;51.032;5.866;2023-06-01T15:06:38;32.60;22.46
68556;HTU21D;55544;51.032;5.866;2023-06-01T15:09:04;32.58;22.44
68556;HTU21D;55544;51.032;5.866;2023-06-01T15:11:30;32.68;22.85
68556;HTU21D;55544;51.032;5.866;2023-06-01T15:13:55;32.86;22.37
68556;HTU21D;55544;51.032;5.866;2023-06-01T15:16:21;32.91;22.49
68556;HTU21D;55544;51.032;5.866;2023-06-01T15:18:47;32.97;22.39
68556;HTU21D;55544;51.032;5.866;2023-06-01T15:21:12;33.02;22.53
68556;HTU21D;55544;51.032;5.866;2023-06-01T15:23:38;32.93;22.39
68556;HTU21D;55544;51.032;5.866;2023-06-01T15:26:05;32.74;23.05
68556;HTU21D;55544;51.032;5.866;2023-06-01T15:28:31;32.60;23.42
68556;HTU21D;55544;51.032;5.866;2023-06-01T15:30:56;32.57;23.46
68556;HTU21D;55544;51.032;5.866;2023-06-01T15:33:22;32.50;23.56
68556;HTU21D;55544;51.032;5.866;2023-06-01T15:35:48;32.48;23.61
68556;HTU21D;55544;51.032;5.866;2023-06-01T15:38:14;32.48;23.73
68556;HTU21D;55544;51.032;5.866;2023-06-01T15:40:39;32.39;23.69
68556;HTU21D;55544;51.032;5.866;2023-06-01T15:43:05;32.37;23.53
68556;HTU21D;55544;51.032;5.866;2023-06-01T15:45:31;32.39;23.77
68556;HTU21D;55544;51.032;5.866;2023-06-01T15:47:57;32.46;23.66
68556;HTU21D;55544;51.032;5.866;2023-06-01T15:50:23;32.56;23.39
68556;HTU21D;55544;51.032;5.866;2023-06-01T15:52:48;32.57;23.41